Terminal Aerodrome Forecast
Issued by NWS Goodland, KS

Home | Current Version | Previous Version | Text Only | Print | Product List | Glossary On
Versions: 1 2 3 4 5 6 7 8 9 10 11 12
864
FTUS43 KGLD 252355
TAFGLD
TAF
KGLD 252355Z 2600/2624 36020G30KT P6SM VCTS SCT060CB BKN100
      TEMPO 2600/2601 BKN030CB
     FM260300 02008KT P6SM BKN150
     FM261800 11005KT P6SM SCT150=

USA.gov is the U.S. government's official web portal to all federal, state and local government web resources and services.